Relevés horaires Bierset (Belgique)


Relevés horaires à Bierset - Jeudi 07 Sept. 2023
Heure UTC1 Température [°C] Vent [km/h] Hum. [%] Pres.4 [hPa] Visi. [Km] Nébu. [octa] Préc.5 [mm] Cond.
2m. Res. Ros. Dir.2 Vit. Moy. Raf.3
23:00 21.5 21.5 13.4 SE 7.4 7.4 13.0 60 1017.5(0.2/3h) 30 0/8 -- --
22:00 22.2 22.2 13.5 SE 5.6 5.6 13.0 58 1017.7(0.4/3h) 30 0/8 -- --
21:00 23.2 23.2 13.4 SE 3.7 5.6 14.8 54 1017.8(0.8/3h) 30 0/8 -- --
20:00 24.0 24.0 13.5 SSE 3.7 3.7 5.6 52 1017.4(0.7/3h) 30 0/8 -- --
19:00 25.4 25.4 13.2 SE 3.7 5.6 14.8 47 1017.1(0.5/3h) 30 0/8 -- --
18:00 27.2 27.2 12.3 SSE 3.7 7.4 24.1 40 1016.7(-0.1/3h) 30 0/8 0/12h
--
17:00 29.2 29.2 11.6 SSE 5.6 7.4 16.7 34 1016.4(-0.2/3h) 30 0/8 -- --
16:00 30.1 30.1 10.9 SSE 5.6 7.4 24.1 31 1016.3(-0.7/3h) 30 0/8 -- --
15:00 30.7 30.7 11.8 SSE 7.4 7.4 18.5 31 1016.3(-0.9/3h) 30 0/8 -- --
14:00 30.3 30.3 12.9 ESE 3.7 7.4 14.8 34 1016.5(-1.2/3h) 30 0/8 -- --
13:00 29.3 29.3 13.8 SE 5.6 7.4 13.0 39 1017(-1.2/3h) 30 0/8 -- --
12:00 28.6 28.6 13.9 SE 7.4 7.4 18.5 41 1017.4(-1.2/3h) 30 0/8 0/6h
--
11:00 27.0 27.0 14.0 ESE 7.4 7.4 18.5 45 1017.9(-1.2/3h) 30 0/8 -- --
10:00 25.5 25.5 14.1 ESE 5.6 7.4 9.3 49 1018.6(-0.5/3h) 30 0/8 -- --
09:00 23.6 23.6 15.7 ESE 3.7 5.6 14.8 61 1019(0.3/3h) 30 0/8 -- --
08:00 22.3 22.3 14.6 E 1.9 1.9 9.3 62 1019.4(1.1/3h) 30 1/8 -- --
07:00 19.3 19.3 11.9 NNO 1.9 5.6 7.4 62 1019.5(1.0/3h) 30 1/8 -- --
06:00 16.8 16.8 10.7 ENE 1.9 5.6 11.1 67 1019.3(0.5/3h) 30 1/8 0/12h
--
05:00 14.1 14.1 11.7 NNO 0.0 3.7 3.7 85 1019(-0.3/3h) 30 1/8 -- --
04:00 16.6 16.6 12.1 ENE 1.9 5.6 11.1 75 1018.7(-0.6/3h) 30 1/8 -- --
03:00 19.0 19.0 11.7 SE 5.6 5.6 9.3 63 1018.6(-0.8/3h) 30 1/8 -- --
02:00 18.9 18.9 11.8 NNO 1.9 1.9 3.7 63 1018.9(-0.7/3h) 30 1/8 -- --
01:00 19.1 19.1 12.0 SSE 1.9 5.6 7.4 63 1019.1(-0.7/3h) 30 1/8 -- --
00:00 20.0 20.0 12.4 SE 5.6 7.4 18.5 62 1019.3(-0.3/3h) 30 1/8 0/6h
0/24h
--

1 Coordinated Universal Time. Actuellement il est 17:00 locale et 15:00 UTC.

2 Le vent souffle depuis la direction indiquée vers la direction oposée.

3 Les rafales max. sont disponible 40 min après l'heure du relevé.

4 Pour les stations d'altitude (plus de 600m) le géopotentiel du niveau le plus proche de la pression obligatoire est indiqué.

5 Les stations disposant d'un diffuseur peuvent indiquer "trace". Cela signifie que des précipitations ont touchés le sol mais que la quantité est inférieure à 0.1 mm.

Récapitulatif de la journée
Température [°C] Vent [km/h] Ensoleillement4 [h] Precipitations totale5 [mm] Pression [Hpa]
Min1 Max.2 Moy.3 Max. Min Max.
13.8 30.7 6 24.1 0 h 0 min 0 1016.3 1019.5

1 Température minimale relevée entre 18:00 UTC la veille et 18:00 UTC le jour donné.

2 Température maximale relevée entre 06:00 UTC le jour donné et 06:00 UTC le lendemain.

3 Vent moyen de la journée basé sur les relevés horaires.

4 Ensoleillement en heures relevé entre 06:00 UTC la veille et 06:00 UTC le jour donné.

5 Précipitations totales tombées entre 06:00 UTC la jour donné et 06:00 UTC le lendemain.

Graphiques horaires